Time,TemperatureF,DewpointF,PressureIn,WindDirection,WindDirectionDegrees,WindSpeedMPH,WindSpeedGustMPH,Humidity,HourlyPrecipIn,Conditions,Clouds,dailyrainin,SoftwareType,DateUTC
2013-05-27 00:00:00,50.4,36.7,30.20,East,89,0.0,1.0,59,0.00,,,0.00,WUHU216DAVISVP2,2013-05-27 04:00:00,
2013-05-27 00:01:00,50.4,36.7,30.20,East,89,0.0,1.0,59,0.00,,,0.00,WUHU216DAVISVP2,2013-05-27 04:01:00,
2013-05-27 00:06:00,50.0,35.0,30.19,East,89,0.0,1.0,56,0.00,,,0.00,WUHU216DAVISVP2,2013-05-27 04:06:00,
2013-05-27 00:11:00,49.7,35.6,30.19,East,89,0.0,0.0,58,0.00,,,0.00,WUHU216DAVISVP2,2013-05-27 04:11:00,
2013-05-27 00:16:00,49.3,35.7,30.19,East,89,0.0,0.0,59,0.00,,,0.00,WUHU216DAVISVP2,2013-05-27 04:16:00,
2013-05-27 00:21:00,48.9,35.7,30.19,East,89,0.0,0.0,60,0.00,,,0.00,WUHU216DAVISVP2,2013-05-27 04:21:00,
2013-05-27 00:26:00,48.8,36.0,30.20,East,89,0.0,1.0,61,0.00,,,0.00,WUHU216DAVISVP2,2013-05-27 04:26:00,
2013-05-27 00:31:00,48.6,36.7,30.20,East,89,0.0,1.0,63,0.00,,,0.00,WUHU216DAVISVP2,2013-05-27 04:31:00,
2013-05-27 00:36:00,48.3,36.0,30.20,East,89,0.0,1.0,62,0.00,,,0.00,WUHU216DAVISVP2,2013-05-27 04:36:00,
2013-05-27 00:41:00,48.0,36.1,30.20,East,89,0.0,1.0,63,0.00,,,0.00,WUHU216DAVISVP2,2013-05-27 04:41:00,
2013-05-27 00:46:00,47.7,37.0,30.20,East,89,0.0,0.0,66,0.00,,,0.00,WUHU216DAVISVP2,2013-05-27 04:46:00,
2013-05-27 00:51:00,47.5,36.0,30.20,East,89,0.0,0.0,64,0.00,,,0.00,WUHU216DAVISVP2,2013-05-27 04:51:00,
2013-05-27 00:56:00,47.1,35.6,30.20,East,89,0.0,0.0,64,0.00,,,0.00,WUHU216DAVISVP2,2013-05-27 04:56:00,
2013-05-27 01:01:00,46.9,35.8,30.20,East,89,0.0,0.0,65,0.00,,,0.00,WUHU216DAVISVP2,2013-05-27 05:01:00,
2013-05-27 01:06:00,46.6,36.7,30.20,East,89,0.0,0.0,68,0.00,,,0.00,WUHU216DAVISVP2,2013-05-27 05:06:00,
2013-05-27 01:11:00,46.4,36.5,30.19,East,89,0.0,0.0,68,0.00,,,0.00,WUHU216DAVISVP2,2013-05-27 05:11:00,
2013-05-27 01:16:00,46.2,36.3,30.19,East,89,0.0,0.0,68,0.00,,,0.00,WUHU216DAVISVP2,2013-05-27 05:16:00,
2013-05-27 01:21:00,46.0,36.5,30.19,East,89,0.0,0.0,69,0.00,,,0.00,WUHU216DAVISVP2,2013-05-27 05:21:00,
2013-05-27 01:26:00,45.8,36.3,30.19,East,89,0.0,0.0,69,0.00,,,0.00,WUHU216DAVISVP2,2013-05-27 05:26:00,
2013-05-27 01:31:00,45.6,36.5,30.18,East,89,0.0,0.0,70,0.00,,,0.00,WUHU216DAVISVP2,2013-05-27 05:31:00,
2013-05-27 01:36:00,45.3,36.5,30.18,East,89,0.0,0.0,71,0.00,,,0.00,WUHU216DAVISVP2,2013-05-27 05:36:00,
2013-05-27 01:41:00,45.1,36.7,30.18,East,89,0.0,0.0,72,0.00,,,0.00,WUHU216DAVISVP2,2013-05-27 05:41:00,
2013-05-27 01:46:00,45.0,35.9,30.19,East,89,0.0,0.0,70,0.00,,,0.00,WUHU216DAVISVP2,2013-05-27 05:46:00,
2013-05-27 01:51:00,45.0,35.5,30.19,East,89,0.0,0.0,69,0.00,,,0.00,WUHU216DAVISVP2,2013-05-27 05:51:00,
2013-05-27 01:56:00,44.9,35.4,30.18,East,89,0.0,0.0,69,0.00,,,0.00,WUHU216DAVISVP2,2013-05-27 05:56:00,
2013-05-27 02:01:00,44.6,35.9,30.18,East,89,0.0,0.0,71,0.00,,,0.00,WUHU216DAVISVP2,2013-05-27 06:01:00,
2013-05-27 02:06:00,44.5,36.1,30.18,East,89,0.0,1.0,72,0.00,,,0.00,WUHU216DAVISVP2,2013-05-27 06:06:00,
2013-05-27 02:11:00,44.5,35.8,30.18,East,89,0.0,1.0,71,0.00,,,0.00,WUHU216DAVISVP2,2013-05-27 06:11:00,
2013-05-27 02:16:00,44.4,35.3,30.18,East,89,0.0,1.0,70,0.00,,,0.00,WUHU216DAVISVP2,2013-05-27 06:16:00,
2013-05-27 02:21:00,44.3,36.3,30.18,East,89,0.0,0.0,73,0.00,,,0.00,WUHU216DAVISVP2,2013-05-27 06:21:00,
2013-05-27 02:26:00,44.4,35.7,30.18,East,89,0.0,0.0,71,0.00,,,0.00,WUHU216DAVISVP2,2013-05-27 06:26:00,
2013-05-27 02:31:00,44.3,36.6,30.18,East,89,0.0,1.0,74,0.00,,,0.00,WUHU216DAVISVP2,2013-05-27 06:31:00,
2013-05-27 02:36:00,44.1,36.1,30.18,East,89,0.0,1.0,73,0.00,,,0.00,WUHU216DAVISVP2,2013-05-27 06:36:00,
2013-05-27 02:41:00,44.1,36.4,30.18,East,89,0.0,1.0,74,0.00,,,0.00,WUHU216DAVISVP2,2013-05-27 06:41:00,
2013-05-27 02:46:00,43.9,35.9,30.18,East,89,0.0,1.0,73,0.00,,,0.00,WUHU216DAVISVP2,2013-05-27 06:46:00,
2013-05-27 02:51:00,43.9,36.5,30.18,East,89,0.0,0.0,75,0.00,,,0.00,WUHU216DAVISVP2,2013-05-27 06:51:00,
2013-05-27 02:56:00,43.7,36.0,30.18,East,89,0.0,0.0,74,0.00,,,0.00,WUHU216DAVISVP2,2013-05-27 06:56:00,
2013-05-27 03:01:00,43.5,35.8,30.18,East,89,0.0,0.0,74,0.00,,,0.00,WUHU216DAVISVP2,2013-05-27 07:01:00,
2013-05-27 03:06:00,43.4,36.3,30.18,East,89,0.0,0.0,76,0.00,,,0.00,WUHU216DAVISVP2,2013-05-27 07:06:00,
2013-05-27 03:11:00,43.4,35.7,30.18,East,89,0.0,0.0,74,0.00,,,0.00,WUHU216DAVISVP2,2013-05-27 07:11:00,
2013-05-27 03:16:00,43.2,35.5,30.18,East,89,0.0,0.0,74,0.00,,,0.00,WUHU216DAVISVP2,2013-05-27 07:16:00,
2013-05-27 03:21:00,43.1,35.8,30.17,East,89,0.0,1.0,75,0.00,,,0.00,WUHU216DAVISVP2,2013-05-27 07:21:00,
2013-05-27 03:26:00,43.1,36.1,30.17,East,89,0.0,1.0,76,0.00,,,0.00,WUHU216DAVISVP2,2013-05-27 07:26:00,
2013-05-27 03:31:00,43.0,35.3,30.17,East,89,0.0,1.0,74,0.00,,,0.00,WUHU216DAVISVP2,2013-05-27 07:31:00,
2013-05-27 03:36:00,42.9,35.2,30.17,East,89,0.0,1.0,74,0.00,,,0.00,WUHU216DAVISVP2,2013-05-27 07:36:00,
2013-05-27 03:41:00,42.9,35.9,30.17,East,89,0.0,1.0,76,0.00,,,0.00,WUHU216DAVISVP2,2013-05-27 07:41:00,
2013-05-27 03:46:00,42.9,35.2,30.17,East,89,0.0,1.0,74,0.00,,,0.00,WUHU216DAVISVP2,2013-05-27 07:46:00,
2013-05-27 03:51:00,42.9,35.9,30.17,East,89,0.0,1.0,76,0.00,,,0.00,WUHU216DAVISVP2,2013-05-27 07:51:00,
2013-05-27 03:56:00,42.8,35.5,30.17,East,89,0.0,1.0,75,0.00,,,0.00,WUHU216DAVISVP2,2013-05-27 07:56:00,
2013-05-27 04:01:00,42.7,36.0,30.17,East,84,0.0,0.0,77,0.00,,,0.00,WUHU216DAVISVP2,2013-05-27 08:01:00,
2013-05-27 04:06:00,42.7,35.4,30.17,East,79,0.0,0.0,75,0.00,,,0.00,WUHU216DAVISVP2,2013-05-27 08:06:00,
2013-05-27 04:11:00,42.8,35.1,30.17,East,79,0.0,0.0,74,0.00,,,0.00,WUHU216DAVISVP2,2013-05-27 08:11:00,
2013-05-27 04:16:00,42.8,35.1,30.17,East,79,0.0,0.0,74,0.00,,,0.00,WUHU216DAVISVP2,2013-05-27 08:16:00,
2013-05-27 04:21:00,42.7,36.0,30.17,East,79,0.0,0.0,77,0.00,,,0.00,WUHU216DAVISVP2,2013-05-27 08:21:00,
2013-05-27 04:26:00,42.6,35.3,30.17,East,79,0.0,0.0,75,0.00,,,0.00,WUHU216DAVISVP2,2013-05-27 08:26:00,
2013-05-27 04:31:00,42.5,35.5,30.17,East,79,0.0,0.0,76,0.00,,,0.00,WUHU216DAVISVP2,2013-05-27 08:31:00,
2013-05-27 04:36:00,42.5,35.2,30.17,East,79,0.0,0.0,75,0.00,,,0.00,WUHU216DAVISVP2,2013-05-27 08:36:00,
2013-05-27 04:41:00,42.3,35.6,30.17,East,79,1.0,1.0,77,0.00,,,0.00,WUHU216DAVISVP2,2013-05-27 08:41:00,
2013-05-27 04:46:00,42.0,35.4,30.17,East,79,0.0,1.0,77,0.00,,,0.00,WUHU216DAVISVP2,2013-05-27 08:46:00,
2013-05-27 04:51:00,42.0,36.3,30.16,East,79,0.0,1.0,80,0.00,,,0.00,WUHU216DAVISVP2,2013-05-27 08:51:00,
2013-05-27 04:56:00,41.8,35.5,30.16,East,79,0.0,1.0,78,0.00,,,0.00,WUHU216DAVISVP2,2013-05-27 08:56:00,
2013-05-27 05:01:00,41.8,34.8,30.16,East,79,0.0,0.0,76,0.00,,,0.00,WUHU216DAVISVP2,2013-05-27 09:01:00,
2013-05-27 05:06:00,41.8,35.2,30.16,East,79,0.0,0.0,77,0.00,,,0.00,WUHU216DAVISVP2,2013-05-27 09:06:00,
2013-05-27 05:11:00,41.8,35.5,30.16,ENE,78,0.0,1.0,78,0.00,,,0.00,WUHU216DAVISVP2,2013-05-27 09:11:00,
2013-05-27 05:16:00,41.8,35.8,30.16,East,79,0.0,1.0,79,0.00,,,0.00,WUHU216DAVISVP2,2013-05-27 09:16:00,
2013-05-27 05:21:00,41.7,36.0,30.16,East,79,0.0,1.0,80,0.00,,,0.00,WUHU216DAVISVP2,2013-05-27 09:21:00,
2013-05-27 05:26:00,41.4,35.7,30.16,East,79,0.0,1.0,80,0.00,,,0.00,WUHU216DAVISVP2,2013-05-27 09:26:00,
2013-05-27 05:31:00,41.3,35.6,30.16,East,79,0.0,0.0,80,0.00,,,0.00,WUHU216DAVISVP2,2013-05-27 09:31:00,
2013-05-27 05:36:00,41.1,35.7,30.16,East,79,0.0,0.0,81,0.00,,,0.00,WUHU216DAVISVP2,2013-05-27 09:36:00,
2013-05-27 05:41:00,41.0,35.6,30.16,East,79,0.0,0.0,81,0.00,,,0.00,WUHU216DAVISVP2,2013-05-27 09:41:00,
2013-05-27 05:46:00,41.0,36.2,30.16,East,79,0.0,0.0,83,0.00,,,0.00,WUHU216DAVISVP2,2013-05-27 09:46:00,
2013-05-27 05:51:00,40.9,35.5,30.16,East,79,0.0,0.0,81,0.00,,,0.00,WUHU216DAVISVP2,2013-05-27 09:51:00,
2013-05-27 05:56:00,40.9,35.8,30.16,East,79,0.0,1.0,82,0.00,,,0.00,WUHU216DAVISVP2,2013-05-27 09:56:00,
2013-05-27 06:01:00,41.1,35.4,30.16,ENE,70,0.0,1.0,80,0.00,,,0.00,WUHU216DAVISVP2,2013-05-27 10:01:00,
2013-05-27 06:06:00,41.2,36.1,30.16,ENE,70,0.0,1.0,82,0.00,,,0.00,WUHU216DAVISVP2,2013-05-27 10:06:00,
2013-05-27 06:11:00,41.1,36.0,30.16,ENE,69,0.0,1.0,82,0.00,,,0.00,WUHU216DAVISVP2,2013-05-27 10:11:00,
2013-05-27 06:16:00,41.1,35.7,30.16,ENE,70,0.0,0.0,81,0.00,,,0.00,WUHU216DAVISVP2,2013-05-27 10:16:00,
2013-05-27 06:21:00,41.3,35.6,30.16,ENE,69,0.0,0.0,80,0.00,,,0.00,WUHU216DAVISVP2,2013-05-27 10:21:00,
2013-05-27 06:26:00,41.5,35.8,30.16,ENE,70,0.0,0.0,80,0.00,,,0.00,WUHU216DAVISVP2,2013-05-27 10:26:00,
2013-05-27 06:31:00,41.7,36.0,30.17,ENE,71,0.0,0.0,80,0.00,,,0.00,WUHU216DAVISVP2,2013-05-27 10:31:00,
2013-05-27 06:36:00,41.6,35.6,30.17,ENE,69,0.0,0.0,79,0.00,,,0.00,WUHU216DAVISVP2,2013-05-27 10:36:00,
2013-05-27 06:41:00,41.7,35.7,30.17,ENE,70,0.0,0.0,79,0.00,,,0.00,WUHU216DAVISVP2,2013-05-27 10:41:00,
2013-05-27 06:46:00,41.9,35.6,30.16,ENE,69,0.0,0.0,78,0.00,,,0.00,WUHU216DAVISVP2,2013-05-27 10:46:00,
2013-05-27 06:51:00,42.1,36.4,30.17,ENE,71,0.0,0.0,80,0.00,,,0.00,WUHU216DAVISVP2,2013-05-27 10:51:00,
2013-05-27 06:56:00,42.5,36.2,30.17,ENE,71,0.0,0.0,78,0.00,,,0.00,WUHU216DAVISVP2,2013-05-27 10:56:00,
2013-05-27 07:01:00,42.8,37.1,30.16,ENE,71,0.0,0.0,80,0.00,,,0.00,WUHU216DAVISVP2,2013-05-27 11:01:00,
2013-05-27 07:06:00,43.1,37.3,30.17,ENE,71,0.0,0.0,80,0.00,,,0.00,WUHU216DAVISVP2,2013-05-27 11:06:00,
2013-05-27 07:11:00,43.3,36.9,30.17,ENE,71,0.0,0.0,78,0.00,,,0.00,WUHU216DAVISVP2,2013-05-27 11:11:00,
2013-05-27 07:16:00,43.8,37.4,30.17,ENE,71,0.0,0.0,78,0.00,,,0.00,WUHU216DAVISVP2,2013-05-27 11:16:00,
2013-05-27 07:21:00,44.3,37.9,30.17,ENE,71,0.0,0.0,78,0.00,,,0.00,WUHU216DAVISVP2,2013-05-27 11:21:00,
2013-05-27 07:26:00,44.9,38.2,30.18,ENE,69,0.0,0.0,77,0.00,,,0.00,WUHU216DAVISVP2,2013-05-27 11:26:00,
2013-05-27 07:31:00,45.6,38.2,30.18,ENE,65,0.0,1.0,75,0.00,,,0.00,WUHU216DAVISVP2,2013-05-27 11:31:00,
2013-05-27 07:36:00,46.4,38.3,30.18,ENE,68,0.0,1.0,73,0.00,,,0.00,WUHU216DAVISVP2,2013-05-27 11:36:00,
2013-05-27 07:41:00,47.0,38.2,30.17,East,85,0.0,1.0,71,0.00,,,0.00,WUHU216DAVISVP2,2013-05-27 11:41:00,
2013-05-27 07:46:00,47.6,38.8,30.17,East,83,1.0,1.0,71,0.00,,,0.00,WUHU216DAVISVP2,2013-05-27 11:46:00,
2013-05-27 07:51:00,48.2,39.3,30.17,East,83,1.0,1.0,71,0.00,,,0.00,WUHU216DAVISVP2,2013-05-27 11:51:00,
2013-05-27 07:56:00,48.7,38.7,30.17,ENE,75,1.0,2.0,68,0.00,,,0.00,WUHU216DAVISVP2,2013-05-27 11:56:00,
2013-05-27 08:01:00,49.0,39.0,30.17,NE,56,1.0,2.0,68,0.00,,,0.00,WUHU216DAVISVP2,2013-05-27 12:01:00,
2013-05-27 08:06:00,49.3,38.1,30.17,East,90,0.0,3.0,65,0.00,,,0.00,WUHU216DAVISVP2,2013-05-27 12:06:00,
2013-05-27 08:11:00,49.8,39.4,30.17,East,91,0.0,3.0,67,0.00,,,0.00,WUHU216DAVISVP2,2013-05-27 12:11:00,
2013-05-27 08:16:00,50.3,39.0,30.17,SSE,152,0.0,2.0,65,0.00,,,0.00,WUHU216DAVISVP2,2013-05-27 12:16:00,
2013-05-27 08:21:00,50.6,39.7,30.17,SE,126,0.0,2.0,66,0.00,,,0.00,WUHU216DAVISVP2,2013-05-27 12:21:00,
2013-05-27 08:26:00,50.9,40.3,30.17,ESE,108,0.0,2.0,67,0.00,,,0.00,WUHU216DAVISVP2,2013-05-27 12:26:00,
2013-05-27 08:31:00,51.4,40.5,30.16,East,90,0.0,3.0,66,0.00,,,0.00,WUHU216DAVISVP2,2013-05-27 12:31:00,
2013-05-27 08:36:00,51.9,41.0,30.16,East,98,1.0,3.0,66,0.00,,,0.00,WUHU216DAVISVP2,2013-05-27 12:36:00,
2013-05-27 08:41:00,52.2,40.9,30.16,ENE,63,1.0,3.0,65,0.00,,,0.00,WUHU216DAVISVP2,2013-05-27 12:41:00,
2013-05-27 08:46:00,52.6,40.9,30.16,SE,125,1.0,2.0,64,0.00,,,0.00,WUHU216DAVISVP2,2013-05-27 12:46:00,
2013-05-27 08:51:00,52.9,39.5,30.17,ESE,113,1.0,2.0,60,0.00,,,0.00,WUHU216DAVISVP2,2013-05-27 12:51:00,
2013-05-27 08:56:00,53.4,39.5,30.17,ESE,110,1.0,2.0,59,0.00,,,0.00,WUHU216DAVISVP2,2013-05-27 12:56:00,
2013-05-27 09:01:00,53.8,39.4,30.17,ESE,110,1.0,2.0,58,0.00,,,0.00,WUHU216DAVISVP2,2013-05-27 13:01:00,
2013-05-27 09:06:00,54.2,38.4,30.17,ESE,114,0.0,2.0,55,0.00,,,0.00,WUHU216DAVISVP2,2013-05-27 13:06:00,
2013-05-27 09:11:00,55.0,39.6,30.17,ESE,114,1.0,2.0,56,0.00,,,0.00,WUHU216DAVISVP2,2013-05-27 13:11:00,
2013-05-27 09:16:00,55.7,39.3,30.17,East,87,0.0,2.0,54,0.00,,,0.00,WUHU216DAVISVP2,2013-05-27 13:16:00,
2013-05-27 09:21:00,56.4,38.5,30.17,NNE,20,1.0,2.0,51,0.00,,,0.00,WUHU216DAVISVP2,2013-05-27 13:21:00,
2013-05-27 09:28:00,56.5,38.6,30.17,NNE,13,0.0,2.0,51,0.00,,,0.00,WUHU216DAVISVP2,2013-05-27 13:28:00,
2013-05-27 09:33:00,57.7,38.6,30.16,ESE,105,1.0,2.0,49,0.00,,,0.00,WUHU216DAVISVP2,2013-05-27 13:33:00,
2013-05-27 09:38:00,57.9,37.7,30.17,SE,128,0.0,2.0,47,0.00,,,0.00,WUHU216DAVISVP2,2013-05-27 13:38:00,
2013-05-27 09:43:00,58.4,40.8,30.17,ESE,114,1.0,2.0,52,0.00,,,0.00,WUHU216DAVISVP2,2013-05-27 13:43:00,
2013-05-27 09:48:00,58.9,39.2,30.16,ESE,112,0.0,2.0,48,0.00,,,0.00,WUHU216DAVISVP2,2013-05-27 13:48:00,
2013-05-27 09:53:00,59.5,39.2,30.16,NE,51,0.0,3.0,47,0.00,,,0.00,WUHU216DAVISVP2,2013-05-27 13:53:00,
2013-05-27 09:58:00,60.0,39.1,30.16,SSE,148,1.0,3.0,46,0.00,,,0.00,WUHU216DAVISVP2,2013-05-27 13:58:00,
2013-05-27 10:03:00,60.5,39.0,30.16,ESE,115,1.0,4.0,45,0.00,,,0.00,WUHU216DAVISVP2,2013-05-27 14:03:00,
2013-05-27 10:08:00,61.1,38.3,30.16,SSW,210,3.0,4.0,43,0.00,,,0.00,WUHU216DAVISVP2,2013-05-27 14:08:00,
2013-05-27 10:13:00,61.5,38.1,30.15,ESE,110,0.0,4.0,42,0.00,,,0.00,WUHU216DAVISVP2,2013-05-27 14:13:00,
2013-05-27 10:18:00,62.0,38.5,30.15,SE,136,1.0,4.0,42,0.00,,,0.00,WUHU216DAVISVP2,2013-05-27 14:18:00,
2013-05-27 10:23:00,62.0,38.6,30.15,ESE,122,0.0,4.0,42,0.00,,,0.00,WUHU216DAVISVP2,2013-05-27 14:23:00,
2013-05-27 10:28:00,62.2,38.2,30.15,East,91,1.0,4.0,41,0.00,,,0.00,WUHU216DAVISVP2,2013-05-27 14:28:00,
2013-05-27 10:33:00,61.6,36.4,30.15,SE,129,1.0,4.0,39,0.00,,,0.00,WUHU216DAVISVP2,2013-05-27 14:33:00,
2013-05-27 10:38:00,61.4,35.4,30.15,SE,133,2.0,3.0,38,0.00,,,0.00,WUHU216DAVISVP2,2013-05-27 14:38:00,
2013-05-27 10:43:00,61.2,35.9,30.15,SE,124,0.0,3.0,39,0.00,,,0.00,WUHU216DAVISVP2,2013-05-27 14:43:00,
2013-05-27 10:48:00,61.0,36.3,30.15,ESE,113,0.0,3.0,40,0.00,,,0.00,WUHU216DAVISVP2,2013-05-27 14:48:00,
2013-05-27 10:53:00,61.1,35.1,30.14,SSE,167,1.0,3.0,38,0.00,,,0.00,WUHU216DAVISVP2,2013-05-27 14:53:00,
2013-05-27 10:58:00,61.1,34.4,30.14,SSW,200,1.0,6.0,37,0.00,,,0.00,WUHU216DAVISVP2,2013-05-27 14:58:00,
2013-05-27 11:03:00,61.1,35.1,30.14,South,190,4.0,6.0,38,0.00,,,0.00,WUHU216DAVISVP2,2013-05-27 15:03:00,
2013-05-27 11:08:00,61.1,35.1,30.14,WNW,284,0.0,6.0,38,0.00,,,0.00,WUHU216DAVISVP2,2013-05-27 15:08:00,
2013-05-27 11:13:00,61.3,35.3,30.14,East,98,0.0,6.0,38,0.00,,,0.00,WUHU216DAVISVP2,2013-05-27 15:13:00,
2013-05-27 11:18:00,61.5,35.6,30.14,ESE,105,0.0,4.0,38,0.00,,,0.00,WUHU216DAVISVP2,2013-05-27 15:18:00,
2013-05-27 11:23:00,61.7,35.8,30.14,ESE,112,2.0,4.0,38,0.00,,,0.00,WUHU216DAVISVP2,2013-05-27 15:23:00,
2013-05-27 11:28:00,61.6,35.7,30.14,SE,128,1.0,4.0,38,0.00,,,0.00,WUHU216DAVISVP2,2013-05-27 15:28:00,
2013-05-27 11:33:00,61.7,37.6,30.13,SSW,200,2.0,4.0,41,0.00,,,0.00,WUHU216DAVISVP2,2013-05-27 15:33:00,
2013-05-27 11:38:00,61.8,37.1,30.13,SSE,163,3.0,9.0,40,0.00,,,0.00,WUHU216DAVISVP2,2013-05-27 15:38:00,
2013-05-27 11:43:00,62.0,37.2,30.13,SSE,162,2.0,9.0,40,0.00,,,0.00,WUHU216DAVISVP2,2013-05-27 15:43:00,
2013-05-27 11:48:00,62.0,37.9,30.13,East,96,2.0,9.0,41,0.00,,,0.00,WUHU216DAVISVP2,2013-05-27 15:48:00,
2013-05-27 11:53:00,61.8,37.7,30.13,South,183,2.0,9.0,41,0.00,,,0.00,WUHU216DAVISVP2,2013-05-27 15:53:00,
2013-05-27 11:58:00,61.9,37.8,30.13,ESE,114,2.0,6.0,41,0.00,,,0.00,WUHU216DAVISVP2,2013-05-27 15:58:00,
2013-05-27 12:03:00,62.0,38.5,30.12,SE,130,4.0,6.0,42,0.00,,,0.00,WUHU216DAVISVP2,2013-05-27 16:03:00,
2013-05-27 12:08:00,61.8,38.4,30.12,SW,221,3.0,7.0,42,0.00,,,0.00,WUHU216DAVISVP2,2013-05-27 16:08:00,
2013-05-27 12:13:00,61.7,38.4,30.11,South,191,5.0,7.0,42,0.00,,,0.00,WUHU216DAVISVP2,2013-05-27 16:13:00,
2013-05-27 12:18:00,61.6,39.5,30.11,SE,141,1.0,6.0,44,0.00,,,0.00,WUHU216DAVISVP2,2013-05-27 16:18:00,
2013-05-27 12:23:00,61.8,40.2,30.11,ESE,115,2.0,6.0,45,0.00,,,0.00,WUHU216DAVISVP2,2013-05-27 16:23:00,
2013-05-27 12:28:00,61.6,36.9,30.11,SSW,193,2.0,7.0,40,0.00,,,0.00,WUHU216DAVISVP2,2013-05-27 16:28:00,
2013-05-27 12:33:00,61.2,38.4,30.11,SSW,209,1.0,7.0,43,0.00,,,0.00,WUHU216DAVISVP2,2013-05-27 16:33:00,
2013-05-27 12:38:00,61.0,39.4,30.10,SE,133,3.0,7.0,45,0.00,,,0.00,WUHU216DAVISVP2,2013-05-27 16:38:00,
2013-05-27 12:43:00,60.7,40.3,30.10,SSW,195,1.0,7.0,47,0.00,,,0.00,WUHU216DAVISVP2,2013-05-27 16:43:00,
2013-05-27 12:48:00,60.6,41.8,30.09,SSW,198,2.0,6.0,50,0.00,,,0.00,WUHU216DAVISVP2,2013-05-27 16:48:00,
2013-05-27 12:53:00,60.3,42.1,30.09,SE,125,1.0,6.0,51,0.00,,,0.00,WUHU216DAVISVP2,2013-05-27 16:53:00,
2013-05-27 12:58:00,60.1,42.9,30.09,SSW,201,1.0,5.0,53,0.00,,,0.00,WUHU216DAVISVP2,2013-05-27 16:58:00,
2013-05-27 13:03:00,60.0,43.3,30.09,ESE,122,2.0,7.0,54,0.00,,,0.00,WUHU216DAVISVP2,2013-05-27 17:03:00,
2013-05-27 13:08:00,59.8,41.6,30.09,SSE,150,2.0,7.0,51,0.00,,,0.00,WUHU216DAVISVP2,2013-05-27 17:08:00,
2013-05-27 13:13:00,59.5,41.4,30.09,ESE,110,2.0,7.0,51,0.00,,,0.00,WUHU216DAVISVP2,2013-05-27 17:13:00,
2013-05-27 13:18:00,59.6,43.0,30.09,SW,235,1.0,7.0,54,0.00,,,0.00,WUHU216DAVISVP2,2013-05-27 17:18:00,
2013-05-27 13:23:00,59.6,43.5,30.09,South,177,3.0,6.0,55,0.00,,,0.00,WUHU216DAVISVP2,2013-05-27 17:23:00,
2013-05-27 13:28:00,59.4,43.3,30.10,ESE,120,3.0,6.0,55,0.00,,,0.00,WUHU216DAVISVP2,2013-05-27 17:28:00,
2013-05-27 13:33:00,59.2,43.6,30.10,SSW,194,1.0,6.0,56,0.00,,,0.00,WUHU216DAVISVP2,2013-05-27 17:33:00,
2013-05-27 13:38:00,59.0,46.4,30.10,SSW,210,1.0,6.0,63,0.00,,,0.00,WUHU216DAVISVP2,2013-05-27 17:38:00,
2013-05-27 13:43:00,58.9,46.3,30.10,ESE,116,1.0,5.0,63,0.00,,,0.00,WUHU216DAVISVP2,2013-05-27 17:43:00,
2013-05-27 13:48:00,59.0,46.8,30.10,SW,232,2.0,5.0,64,0.00,,,0.00,WUHU216DAVISVP2,2013-05-27 17:48:00,
2013-05-27 13:53:00,58.9,43.7,30.10,SSE,149,0.0,4.0,57,0.00,,,0.00,WUHU216DAVISVP2,2013-05-27 17:53:00,
2013-05-27 13:58:00,58.5,45.2,30.10,ESE,111,1.0,4.0,61,0.00,,,0.00,WUHU216DAVISVP2,2013-05-27 17:58:00,
2013-05-27 14:03:00,58.1,45.7,30.10,SW,219,3.0,5.0,63,0.00,,,0.00,WUHU216DAVISVP2,2013-05-27 18:03:00,
2013-05-27 14:08:00,57.5,45.1,30.10,SSW,206,5.0,7.0,63,0.00,,,0.00,WUHU216DAVISVP2,2013-05-27 18:08:00,
2013-05-27 14:13:00,57.0,45.1,30.10,SSE,159,2.0,7.0,64,0.00,,,0.00,WUHU216DAVISVP2,2013-05-27 18:13:00,
2013-05-27 14:18:00,56.8,46.1,30.10,SSW,204,0.0,6.0,67,0.00,,,0.00,WUHU216DAVISVP2,2013-05-27 18:18:00,
2013-05-27 14:23:00,56.6,45.9,30.10,ESE,117,1.0,6.0,67,0.00,,,0.00,WUHU216DAVISVP2,2013-05-27 18:23:00,
2013-05-27 14:28:00,56.4,45.6,30.10,SSW,211,0.0,5.0,67,0.00,,,0.00,WUHU216DAVISVP2,2013-05-27 18:28:00,
2013-05-27 14:33:00,56.1,46.6,30.11,SW,220,4.0,6.0,70,0.00,,,0.00,WUHU216DAVISVP2,2013-05-27 18:33:00,
2013-05-27 14:38:00,56.0,46.7,30.11,SE,124,0.0,6.0,71,0.00,,,0.00,WUHU216DAVISVP2,2013-05-27 18:38:00,
2013-05-27 14:43:00,55.9,46.6,30.11,WSW,246,0.0,6.0,71,0.00,,,0.00,WUHU216DAVISVP2,2013-05-27 18:43:00,
2013-05-27 14:48:00,55.8,46.9,30.11,WSW,248,1.0,5.0,72,0.00,,,0.00,WUHU216DAVISVP2,2013-05-27 18:48:00,
2013-05-27 14:53:00,55.6,47.4,30.11,SW,236,1.0,5.0,74,0.00,,,0.00,WUHU216DAVISVP2,2013-05-27 18:53:00,
2013-05-27 14:58:00,55.5,47.4,30.11,South,190,4.0,5.0,74,0.01,,,0.01,WUHU216DAVISVP2,2013-05-27 18:58:00,
2013-05-27 15:03:00,55.1,46.7,30.11,SSW,207,2.0,7.0,73,0.01,,,0.01,WUHU216DAVISVP2,2013-05-27 19:03:00,
2013-05-27 15:08:00,54.4,44.6,30.11,SSW,192,3.0,7.0,69,0.01,,,0.01,WUHU216DAVISVP2,2013-05-27 19:08:00,
2013-05-27 15:13:00,54.2,45.8,30.11,SSE,161,1.0,7.0,73,0.01,,,0.01,WUHU216DAVISVP2,2013-05-27 19:13:00,
2013-05-27 15:18:00,54.1,45.7,30.11,ESE,120,2.0,7.0,73,0.01,,,0.01,WUHU216DAVISVP2,2013-05-27 19:18:00,
2013-05-27 15:23:00,53.8,45.8,30.11,South,176,2.0,7.0,74,0.01,,,0.01,WUHU216DAVISVP2,2013-05-27 19:23:00,
2013-05-27 15:28:00,53.5,45.9,30.11,SW,214,3.0,6.0,75,0.01,,,0.01,WUHU216DAVISVP2,2013-05-27 19:28:00,
2013-05-27 15:33:00,53.3,46.7,30.10,ESE,116,2.0,5.0,78,0.02,,,0.02,WUHU216DAVISVP2,2013-05-27 19:33:00,
2013-05-27 15:38:00,53.2,47.2,30.10,SSW,204,2.0,5.0,80,0.02,,,0.02,WUHU216DAVISVP2,2013-05-27 19:38:00,
2013-05-27 15:43:00,53.0,47.4,30.10,SW,220,2.0,4.0,81,0.02,,,0.02,WUHU216DAVISVP2,2013-05-27 19:43:00,
2013-05-27 15:48:00,52.9,47.3,30.10,ESE,117,2.0,4.0,81,0.02,,,0.02,WUHU216DAVISVP2,2013-05-27 19:48:00,
2013-05-27 15:53:00,52.6,47.3,30.09,East,91,2.0,4.0,82,0.03,,,0.03,WUHU216DAVISVP2,2013-05-27 19:53:00,
2013-05-27 15:58:00,52.5,47.8,30.09,ESE,121,1.0,4.0,84,0.02,,,0.03,WUHU216DAVISVP2,2013-05-27 19:58:00,
2013-05-27 16:03:00,52.4,48.0,30.09,ESE,115,0.0,4.0,85,0.02,,,0.03,WUHU216DAVISVP2,2013-05-27 20:03:00,
2013-05-27 16:08:00,52.4,48.3,30.09,ESE,116,0.0,3.0,86,0.02,,,0.03,WUHU216DAVISVP2,2013-05-27 20:08:00,
2013-05-27 16:13:00,52.1,47.7,30.08,ESE,117,0.0,2.0,85,0.02,,,0.03,WUHU216DAVISVP2,2013-05-27 20:13:00,
2013-05-27 16:18:00,52.0,48.2,30.08,SE,138,0.0,2.0,87,0.02,,,0.03,WUHU216DAVISVP2,2013-05-27 20:18:00,
2013-05-27 16:23:00,52.0,48.2,30.07,East,97,1.0,2.0,87,0.02,,,0.03,WUHU216DAVISVP2,2013-05-27 20:23:00,
2013-05-27 16:28:00,52.1,48.6,30.07,ESE,103,0.0,2.0,88,0.02,,,0.03,WUHU216DAVISVP2,2013-05-27 20:28:00,
2013-05-27 16:33:00,52.4,49.2,30.07,East,88,1.0,2.0,89,0.01,,,0.03,WUHU216DAVISVP2,2013-05-27 20:33:00,
2013-05-27 16:38:00,52.4,48.9,30.07,ENE,71,1.0,2.0,88,0.01,,,0.03,WUHU216DAVISVP2,2013-05-27 20:38:00,
2013-05-27 16:43:00,52.4,49.2,30.07,ESE,103,0.0,2.0,89,0.02,,,0.04,WUHU216DAVISVP2,2013-05-27 20:43:00,
2013-05-27 16:48:00,52.3,49.1,30.06,ESE,114,0.0,2.0,89,0.02,,,0.04,WUHU216DAVISVP2,2013-05-27 20:48:00,
2013-05-27 16:53:00,52.2,49.3,30.06,East,90,0.0,2.0,90,0.01,,,0.04,WUHU216DAVISVP2,2013-05-27 20:53:00,
2013-05-27 16:58:00,52.2,49.6,30.06,ESE,103,0.0,2.0,91,0.02,,,0.05,WUHU216DAVISVP2,2013-05-27 20:58:00,
2013-05-27 17:03:00,52.2,49.6,30.06,ESE,102,0.0,2.0,91,0.02,,,0.05,WUHU216DAVISVP2,2013-05-27 21:03:00,
2013-05-27 17:09:00,52.1,49.6,30.05,ESE,108,0.0,1.0,91,0.03,,,0.06,WUHU216DAVISVP2,2013-05-27 21:09:00,
2013-05-27 17:14:00,52.1,49.8,30.05,East,100,2.0,2.0,92,0.03,,,0.06,WUHU216DAVISVP2,2013-05-27 21:14:00,
2013-05-27 17:19:00,51.9,49.6,30.05,East,98,1.0,2.0,92,0.04,,,0.07,WUHU216DAVISVP2,2013-05-27 21:19:00,
2013-05-27 17:24:00,51.8,49.8,30.05,ESE,109,1.0,3.0,93,0.04,,,0.07,WUHU216DAVISVP2,2013-05-27 21:24:00,
2013-05-27 17:29:00,51.6,49.3,30.04,East,89,1.0,3.0,92,0.05,,,0.08,WUHU216DAVISVP2,2013-05-27 21:29:00,
2013-05-27 17:34:00,51.6,49.6,30.04,ENE,64,1.0,3.0,93,0.05,,,0.08,WUHU216DAVISVP2,2013-05-27 21:34:00,
2013-05-27 17:39:00,51.5,49.5,30.04,East,101,1.0,3.0,93,0.06,,,0.09,WUHU216DAVISVP2,2013-05-27 21:39:00,
2013-05-27 17:44:00,51.4,49.4,30.04,East,79,2.0,3.0,93,0.05,,,0.09,WUHU216DAVISVP2,2013-05-27 21:44:00,
2013-05-27 17:49:00,51.4,49.4,30.03,East,98,0.0,3.0,93,0.06,,,0.10,WUHU216DAVISVP2,2013-05-27 21:49:00,
2013-05-27 17:54:00,51.4,49.4,30.03,East,79,1.0,3.0,93,0.06,,,0.10,WUHU216DAVISVP2,2013-05-27 21:54:00,
2013-05-27 17:59:00,51.3,49.3,30.03,NE,53,1.0,3.0,93,0.06,,,0.11,WUHU216DAVISVP2,2013-05-27 21:59:00,
2013-05-27 18:04:00,51.2,49.2,30.03,East,98,0.0,3.0,93,0.06,,,0.11,WUHU216DAVISVP2,2013-05-27 22:04:00,
2013-05-27 18:09:00,51.1,49.1,30.02,ESE,105,0.0,4.0,93,0.05,,,0.11,WUHU216DAVISVP2,2013-05-27 22:09:00,
2013-05-27 18:14:00,51.1,49.1,30.02,ESE,108,0.0,4.0,93,0.06,,,0.12,WUHU216DAVISVP2,2013-05-27 22:14:00,
2013-05-27 18:19:00,51.2,49.5,30.02,East,82,1.0,4.0,94,0.05,,,0.12,WUHU216DAVISVP2,2013-05-27 22:19:00,
2013-05-27 18:24:00,51.2,49.2,30.02,East,91,0.0,4.0,93,0.05,,,0.12,WUHU216DAVISVP2,2013-05-27 22:24:00,
2013-05-27 18:29:00,51.2,49.5,30.02,East,92,0.0,2.0,94,0.05,,,0.13,WUHU216DAVISVP2,2013-05-27 22:29:00,
2013-05-27 18:34:00,51.2,49.5,30.02,ESE,103,0.0,2.0,94,0.05,,,0.13,WUHU216DAVISVP2,2013-05-27 22:34:00,
2013-05-27 18:39:00,51.1,49.1,30.02,ESE,103,0.0,3.0,93,0.04,,,0.13,WUHU216DAVISVP2,2013-05-27 22:39:00,
2013-05-27 18:44:00,51.0,49.0,30.02,East,80,1.0,3.0,93,0.04,,,0.13,WUHU216DAVISVP2,2013-05-27 22:44:00,
2013-05-27 18:49:00,50.9,48.9,30.01,SE,141,1.0,3.0,93,0.03,,,0.13,WUHU216DAVISVP2,2013-05-27 22:49:00,
2013-05-27 18:54:00,50.8,49.1,30.01,East,82,1.0,3.0,94,0.03,,,0.13,WUHU216DAVISVP2,2013-05-27 22:54:00,
2013-05-27 18:59:00,50.7,48.7,30.01,NNW,341,1.0,3.0,93,0.02,,,0.13,WUHU216DAVISVP2,2013-05-27 22:59:00,
2013-05-27 19:04:00,50.5,48.5,30.01,East,93,0.0,3.0,93,0.02,,,0.13,WUHU216DAVISVP2,2013-05-27 23:04:00,
2013-05-27 19:09:00,50.3,48.3,30.01,ENE,70,1.0,3.0,93,0.03,,,0.14,WUHU216DAVISVP2,2013-05-27 23:09:00,
2013-05-27 19:14:00,50.3,48.3,30.01,ESE,104,1.0,2.0,93,0.02,,,0.14,WUHU216DAVISVP2,2013-05-27 23:14:00,
2013-05-27 19:19:00,50.2,48.2,30.00,East,100,0.0,2.0,93,0.02,,,0.14,WUHU216DAVISVP2,2013-05-27 23:19:00,
2013-05-27 19:24:00,50.2,48.5,30.00,ESE,112,1.0,2.0,94,0.02,,,0.14,WUHU216DAVISVP2,2013-05-27 23:24:00,
2013-05-27 19:29:00,50.1,48.4,30.00,East,97,0.0,2.0,94,0.01,,,0.14,WUHU216DAVISVP2,2013-05-27 23:29:00,
2013-05-27 19:34:00,50.1,48.4,30.00,ESE,110,1.0,2.0,94,0.01,,,0.14,WUHU216DAVISVP2,2013-05-27 23:34:00,
2013-05-27 19:39:00,50.1,48.4,29.99,East,94,1.0,2.0,94,0.01,,,0.14,WUHU216DAVISVP2,2013-05-27 23:39:00,
2013-05-27 19:44:00,50.1,48.4,29.99,East,87,0.0,3.0,94,0.01,,,0.14,WUHU216DAVISVP2,2013-05-27 23:44:00,
2013-05-27 19:49:00,50.1,48.7,30.00,ESE,105,1.0,3.0,95,0.01,,,0.14,WUHU216DAVISVP2,2013-05-27 23:49:00,
2013-05-27 19:54:00,50.1,48.4,30.00,East,100,0.0,2.0,94,0.01,,,0.14,WUHU216DAVISVP2,2013-05-27 23:54:00,
2013-05-27 19:59:00,50.2,48.8,30.00,ESE,105,0.0,2.0,95,0.01,,,0.14,WUHU216DAVISVP2,2013-05-27 23:59:00,
2013-05-27 20:04:00,50.2,48.8,29.99,East,87,1.0,2.0,95,0.01,,,0.14,WUHU216DAVISVP2,2013-05-28 00:04:00,
2013-05-27 20:09:00,50.1,48.7,29.99,East,84,3.0,4.0,95,0.01,,,0.15,WUHU216DAVISVP2,2013-05-28 00:09:00,
2013-05-27 20:14:00,50.1,48.7,29.99,East,99,1.0,4.0,95,0.01,,,0.15,WUHU216DAVISVP2,2013-05-28 00:14:00,
2013-05-27 20:19:00,50.2,48.8,29.99,ESE,118,1.0,4.0,95,0.01,,,0.15,WUHU216DAVISVP2,2013-05-28 00:19:00,
2013-05-27 20:24:00,50.1,48.7,29.99,East,100,0.0,3.0,95,0.01,,,0.15,WUHU216DAVISVP2,2013-05-28 00:24:00,
2013-05-27 20:29:00,50.1,48.7,29.99,ESE,107,0.0,2.0,95,0.01,,,0.15,WUHU216DAVISVP2,2013-05-28 00:29:00,
2013-05-27 20:34:00,50.0,48.6,29.99,ESE,122,1.0,2.0,95,0.01,,,0.15,WUHU216DAVISVP2,2013-05-28 00:34:00,
2013-05-27 20:39:00,50.0,48.6,29.99,NE,50,0.0,2.0,95,0.02,,,0.16,WUHU216DAVISVP2,2013-05-28 00:39:00,
2013-05-27 20:44:00,49.9,48.5,29.98,East,93,0.0,2.0,95,0.03,,,0.17,WUHU216DAVISVP2,2013-05-28 00:44:00,
2013-05-27 20:49:00,49.9,48.5,29.98,ESE,108,0.0,2.0,95,0.04,,,0.18,WUHU216DAVISVP2,2013-05-28 00:49:00,
2013-05-27 20:54:00,49.8,48.4,29.98,East,86,1.0,2.0,95,0.04,,,0.18,WUHU216DAVISVP2,2013-05-28 00:54:00,
2013-05-27 20:59:00,49.6,48.2,29.99,NE,54,0.0,2.0,95,0.04,,,0.18,WUHU216DAVISVP2,2013-05-28 00:59:00,
2013-05-27 21:04:00,49.6,48.5,29.98,East,79,1.0,2.0,96,0.05,,,0.19,WUHU216DAVISVP2,2013-05-28 01:04:00,
2013-05-27 21:09:00,49.5,48.4,29.98,ENE,76,0.0,2.0,96,0.05,,,0.20,WUHU216DAVISVP2,2013-05-28 01:09:00,
2013-05-27 21:14:00,49.5,48.4,29.98,ENE,77,0.0,2.0,96,0.05,,,0.20,WUHU216DAVISVP2,2013-05-28 01:14:00,
2013-05-27 21:19:00,49.5,48.4,29.98,East,91,1.0,2.0,96,0.05,,,0.20,WUHU216DAVISVP2,2013-05-28 01:19:00,
2013-05-27 21:24:00,49.5,48.4,29.97,East,80,1.0,2.0,96,0.05,,,0.20,WUHU216DAVISVP2,2013-05-28 01:24:00,
2013-05-27 21:29:00,49.5,48.4,29.97,ENE,71,1.0,2.0,96,0.06,,,0.21,WUHU216DAVISVP2,2013-05-28 01:29:00,
2013-05-27 21:34:00,49.5,48.4,29.98,SE,129,0.0,2.0,96,0.07,,,0.22,WUHU216DAVISVP2,2013-05-28 01:34:00,
2013-05-27 21:39:00,49.5,48.4,29.97,NW,312,0.0,2.0,96,0.07,,,0.23,WUHU216DAVISVP2,2013-05-28 01:39:00,
2013-05-27 21:44:00,49.6,48.5,29.98,East,90,0.0,2.0,96,0.07,,,0.24,WUHU216DAVISVP2,2013-05-28 01:44:00,
2013-05-27 21:49:00,49.6,48.5,29.97,ENE,58,1.0,2.0,96,0.07,,,0.25,WUHU216DAVISVP2,2013-05-28 01:49:00,
2013-05-27 21:54:00,49.6,48.5,29.98,ENE,71,0.0,2.0,96,0.09,,,0.27,WUHU216DAVISVP2,2013-05-28 01:54:00,
2013-05-27 21:59:00,49.7,48.6,29.98,East,79,0.0,2.0,96,0.10,,,0.28,WUHU216DAVISVP2,2013-05-28 01:59:00,
2013-05-27 22:04:00,49.7,48.6,29.97,East,98,0.0,2.0,96,0.10,,,0.29,WUHU216DAVISVP2,2013-05-28 02:04:00,
2013-05-27 22:09:00,49.7,48.6,29.98,East,79,0.0,2.0,96,0.11,,,0.31,WUHU216DAVISVP2,2013-05-28 02:09:00,
2013-05-27 22:14:00,49.7,48.9,29.98,East,89,1.0,3.0,97,0.13,,,0.33,WUHU216DAVISVP2,2013-05-28 02:14:00,
2013-05-27 22:19:00,49.8,49.0,29.98,East,84,1.0,3.0,97,0.15,,,0.35,WUHU216DAVISVP2,2013-05-28 02:19:00,
2013-05-27 22:24:00,49.8,49.0,29.97,ENE,75,2.0,4.0,97,0.16,,,0.36,WUHU216DAVISVP2,2013-05-28 02:24:00,
2013-05-27 22:29:00,49.8,49.0,29.98,ENE,72,0.0,4.0,97,0.16,,,0.37,WUHU216DAVISVP2,2013-05-28 02:29:00,
2013-05-27 22:34:00,49.9,49.1,29.98,East,90,0.0,4.0,97,0.16,,,0.38,WUHU216DAVISVP2,2013-05-28 02:34:00,
2013-05-27 22:39:00,49.9,49.1,29.98,ENE,78,0.0,3.0,97,0.16,,,0.39,WUHU216DAVISVP2,2013-05-28 02:39:00,
2013-05-27 22:44:00,49.9,49.1,29.98,East,96,0.0,2.0,97,0.16,,,0.40,WUHU216DAVISVP2,2013-05-28 02:44:00,
2013-05-27 22:49:00,50.0,49.2,29.97,ESE,117,0.0,2.0,97,0.15,,,0.40,WUHU216DAVISVP2,2013-05-28 02:49:00,
2013-05-27 22:54:00,50.1,49.3,29.98,ESE,110,0.0,2.0,97,0.14,,,0.41,WUHU216DAVISVP2,2013-05-28 02:54:00,
2013-05-27 22:59:00,50.1,49.3,29.97,NNE,32,0.0,2.0,97,0.14,,,0.42,WUHU216DAVISVP2,2013-05-28 02:59:00,
2013-05-27 23:04:00,50.2,49.4,29.97,North,10,1.0,2.0,97,0.15,,,0.44,WUHU216DAVISVP2,2013-05-28 03:04:00,
2013-05-27 23:09:00,50.2,49.4,29.97,ENE,78,0.0,2.0,97,0.15,,,0.46,WUHU216DAVISVP2,2013-05-28 03:09:00,
2013-05-27 23:14:00,50.2,49.4,29.97,East,89,0.0,2.0,97,0.14,,,0.47,WUHU216DAVISVP2,2013-05-28 03:14:00,
2013-05-27 23:19:00,50.2,49.4,29.97,NNE,32,1.0,2.0,97,0.13,,,0.48,WUHU216DAVISVP2,2013-05-28 03:19:00,
2013-05-27 23:24:00,50.2,49.4,29.97,ENE,70,1.0,3.0,97,0.13,,,0.49,WUHU216DAVISVP2,2013-05-28 03:24:00,
2013-05-27 23:29:00,50.2,49.4,29.96,West,267,1.0,3.0,97,0.13,,,0.50,WUHU216DAVISVP2,2013-05-28 03:29:00,
2013-05-27 23:34:00,50.2,49.4,29.96,ENE,60,0.0,2.0,97,0.12,,,0.50,WUHU216DAVISVP2,2013-05-28 03:34:00,
2013-05-27 23:39:00,50.2,49.4,29.96,ESE,103,1.0,2.0,97,0.11,,,0.50,WUHU216DAVISVP2,2013-05-28 03:39:00,
2013-05-27 23:44:00,50.2,49.4,29.95,East,84,0.0,4.0,97,0.11,,,0.51,WUHU216DAVISVP2,2013-05-28 03:44:00,
2013-05-27 23:49:00,50.3,49.5,29.95,East,86,1.0,4.0,97,0.11,,,0.51,WUHU216DAVISVP2,2013-05-28 03:49:00,
2013-05-27 23:54:00,50.3,49.5,29.95,East,87,2.0,3.0,97,0.10,,,0.51,WUHU216DAVISVP2,2013-05-28 03:54:00,
2013-05-27 23:59:00,50.3,49.5,29.95,East,89,1.0,3.0,97,0.09,,,0.51,WUHU216DAVISVP2,2013-05-28 03:59:00,